Aérodrome :
LOGIN :

S'inscrire | Disclaimer

   EN    FR    IT 

 










Légende :    VFR   VFR Marginal   IFR   IFR Intensif   IFR Très Intensif
Visi : 
Plafond : 
>= 8 km
>= 3000ft
5 à 8 km
1000 à 3000 ft
1500m à 5 km
500 à 1000 ft
800 à 1500m
200 à 500 ft
< 800m
< 200 ft
Symboles :   Orages  Brouillard  Fortes neiges  Fortes précipitations  Vent > 20 kt
SIGMETs :   Divers  Orages  Givrage  Turbulence  Onde Orograph.  Cendres Volcan.






- Altitude de l'aérodrome : 1161 ft
- Code IATA : RJL


LELO - Logroño-Agoncillo

DERNIER METAR :
  • 180530Z VRB02KT 9999 SCT015 BKN050 14/13 Q1016

METARs EXPIRÉS :
  • 180500Z VRB01KT 9999 SCT015 BKN050 14/13 Q1015
  • 180430Z 08003KT 030V110 9999 BKN051 14/12 Q1015
  • 180400Z VRB02KT 9999 BKN059 13/12 Q1015
  • 180330Z AUTO VRB01KT 9000 -RA FEW050 SCT060 BKN070 14/12 Q1015
  • 180300Z AUTO VRB01KT 9999 SCT060 14/12 Q1015

TAF TAF LELO
Valide du 18 à 06h jusqu'au 18 à 15h UTC


180500Z 1806/1815 VRB04KT 9999 SCT015 BKN050



MET'MAP, la Météo Aéronautique d'un coup d'oeil ! - Copyright ORBIFLY Décembre 2007 - Disclaimer

ORBIFLY MET'MAP TEAM :

Programmation & Développement : Alexandra Zaïnal
Conception & Développement : Baudouin d'Aumeries
Co-Programmation & Développement : Marc-Olivier Méhu
Soutien technique & logistique : Manuel Goepfert

Contact : metmap@orbifly.com




SOURCES & CREDITS :

   NOAA